sensor_id;sensor_type;location;lat;lon;timestamp;P1;durP1;ratioP1;P2;durP2;ratioP2
39448;SDS011;25151;45.566;9.382;2023-04-03T00:00:36;2.83;;;1.63;;
39448;SDS011;25151;45.566;9.382;2023-04-03T00:03:38;5.93;;;2.33;;
39448;SDS011;25151;45.566;9.382;2023-04-03T00:06:41;4.28;;;2.35;;
39448;SDS011;25151;45.566;9.382;2023-04-03T00:09:42;2.53;;;1.65;;
39448;SDS011;25151;45.566;9.382;2023-04-03T00:12:43;3.92;;;2.28;;
39448;SDS011;25151;45.566;9.382;2023-04-03T00:15:46;3.30;;;2.20;;
39448;SDS011;25151;45.566;9.382;2023-04-03T00:18:48;2.95;;;2.13;;
39448;SDS011;25151;45.566;9.382;2023-04-03T00:21:49;3.38;;;1.70;;
39448;SDS011;25151;45.566;9.382;2023-04-03T00:24:54;4.13;;;1.98;;
39448;SDS011;25151;45.566;9.382;2023-04-03T00:27:55;2.33;;;1.85;;
39448;SDS011;25151;45.566;9.382;2023-04-03T00:30:56;3.97;;;1.92;;
39448;SDS011;25151;45.566;9.382;2023-04-03T00:33:57;2.65;;;1.80;;
39448;SDS011;25151;45.566;9.382;2023-04-03T00:36:59;3.55;;;1.70;;
39448;SDS011;25151;45.566;9.382;2023-04-03T00:40:00;3.10;;;1.92;;
39448;SDS011;25151;45.566;9.382;2023-04-03T00:43:01;2.72;;;2.08;;
39448;SDS011;25151;45.566;9.382;2023-04-03T00:49:13;3.90;;;1.80;;
39448;SDS011;25151;45.566;9.382;2023-04-03T00:52:16;2.55;;;1.80;;
39448;SDS011;25151;45.566;9.382;2023-04-03T00:55:19;2.28;;;1.90;;
39448;SDS011;25151;45.566;9.382;2023-04-03T00:58:25;2.97;;;2.03;;
39448;SDS011;25151;45.566;9.382;2023-04-03T01:04:39;3.30;;;1.63;;
39448;SDS011;25151;45.566;9.382;2023-04-03T01:07:42;2.70;;;1.92;;
39448;SDS011;25151;45.566;9.382;2023-04-03T01:10:43;3.78;;;2.10;;
39448;SDS011;25151;45.566;9.382;2023-04-03T01:13:46;2.83;;;1.60;;
39448;SDS011;25151;45.566;9.382;2023-04-03T01:16:54;2.70;;;2.10;;
39448;SDS011;25151;45.566;9.382;2023-04-03T01:20:22;2.10;;;1.70;;
39448;SDS011;25151;45.566;9.382;2023-04-03T01:26:33;1.80;;;1.60;;
39448;SDS011;25151;45.566;9.382;2023-04-03T01:29:38;2.95;;;2.10;;
39448;SDS011;25151;45.566;9.382;2023-04-03T01:32:42;3.25;;;2.30;;
39448;SDS011;25151;45.566;9.382;2023-04-03T01:35:43;3.15;;;1.70;;
39448;SDS011;25151;45.566;9.382;2023-04-03T01:38:45;2.58;;;2.00;;
39448;SDS011;25151;45.566;9.382;2023-04-03T01:41:47;3.03;;;2.00;;
39448;SDS011;25151;45.566;9.382;2023-04-03T01:44:49;3.00;;;2.10;;
39448;SDS011;25151;45.566;9.382;2023-04-03T01:47:50;3.95;;;1.55;;
39448;SDS011;25151;45.566;9.382;2023-04-03T01:50:51;2.85;;;1.60;;
39448;SDS011;25151;45.566;9.382;2023-04-03T01:53:55;1.90;;;1.50;;
39448;SDS011;25151;45.566;9.382;2023-04-03T01:56:56;2.92;;;2.10;;
39448;SDS011;25151;45.566;9.382;2023-04-03T01:59:57;2.08;;;1.88;;
39448;SDS011;25151;45.566;9.382;2023-04-03T02:02:58;2.67;;;1.98;;
39448;SDS011;25151;45.566;9.382;2023-04-03T02:05:59;2.28;;;1.60;;
39448;SDS011;25151;45.566;9.382;2023-04-03T02:09:03;2.08;;;1.80;;
39448;SDS011;25151;45.566;9.382;2023-04-03T02:12:05;3.08;;;2.08;;
39448;SDS011;25151;45.566;9.382;2023-04-03T02:15:07;2.35;;;1.70;;
39448;SDS011;25151;45.566;9.382;2023-04-03T02:18:10;1.73;;;1.35;;
39448;SDS011;25151;45.566;9.382;2023-04-03T02:21:12;2.72;;;2.10;;
39448;SDS011;25151;45.566;9.382;2023-04-03T02:24:14;2.47;;;1.98;;
39448;SDS011;25151;45.566;9.382;2023-04-03T02:27:15;3.25;;;1.77;;
39448;SDS011;25151;45.566;9.382;2023-04-03T02:30:17;1.88;;;1.52;;
39448;SDS011;25151;45.566;9.382;2023-04-03T02:33:18;3.13;;;2.00;;
39448;SDS011;25151;45.566;9.382;2023-04-03T02:36:23;2.58;;;1.58;;
39448;SDS011;25151;45.566;9.382;2023-04-03T02:39:25;2.75;;;1.80;;
39448;SDS011;25151;45.566;9.382;2023-04-03T02:42:27;3.05;;;2.00;;
39448;SDS011;25151;45.566;9.382;2023-04-03T02:45:28;2.50;;;1.73;;
39448;SDS011;25151;45.566;9.382;2023-04-03T02:48:29;4.50;;;2.20;;
39448;SDS011;25151;45.566;9.382;2023-04-03T02:51:32;1.83;;;1.58;;
39448;SDS011;25151;45.566;9.382;2023-04-03T02:54:33;2.28;;;1.67;;
39448;SDS011;25151;45.566;9.382;2023-04-03T02:57:37;4.45;;;2.95;;
39448;SDS011;25151;45.566;9.382;2023-04-03T03:00:38;2.47;;;2.00;;
39448;SDS011;25151;45.566;9.382;2023-04-03T03:03:40;2.85;;;1.88;;
39448;SDS011;25151;45.566;9.382;2023-04-03T03:06:41;2.10;;;1.40;;
39448;SDS011;25151;45.566;9.382;2023-04-03T03:09:43;2.40;;;1.40;;
39448;SDS011;25151;45.566;9.382;2023-04-03T03:12:44;2.28;;;1.70;;
39448;SDS011;25151;45.566;9.382;2023-04-03T03:15:47;1.95;;;1.67;;
39448;SDS011;25151;45.566;9.382;2023-04-03T03:18:49;3.72;;;1.55;;
39448;SDS011;25151;45.566;9.382;2023-04-03T03:21:51;3.55;;;1.50;;
39448;SDS011;25151;45.566;9.382;2023-04-03T03:24:52;2.70;;;1.98;;
39448;SDS011;25151;45.566;9.382;2023-04-03T03:27:55;3.45;;;2.00;;
39448;SDS011;25151;45.566;9.382;2023-04-03T03:30:59;1.80;;;1.48;;
39448;SDS011;25151;45.566;9.382;2023-04-03T03:34:01;2.47;;;1.90;;
39448;SDS011;25151;45.566;9.382;2023-04-03T03:37:02;3.10;;;1.80;;
39448;SDS011;25151;45.566;9.382;2023-04-03T03:40:04;2.75;;;1.40;;
39448;SDS011;25151;45.566;9.382;2023-04-03T03:43:06;3.35;;;1.63;;
39448;SDS011;25151;45.566;9.382;2023-04-03T03:46:07;4.78;;;1.80;;
39448;SDS011;25151;45.566;9.382;2023-04-03T03:49:08;3.17;;;1.65;;
39448;SDS011;25151;45.566;9.382;2023-04-03T03:52:09;3.38;;;1.85;;
39448;SDS011;25151;45.566;9.382;2023-04-03T03:55:10;2.00;;;1.50;;
39448;SDS011;25151;45.566;9.382;2023-04-03T03:58:11;2.92;;;1.98;;
39448;SDS011;25151;45.566;9.382;2023-04-03T04:01:12;2.75;;;1.70;;
39448;SDS011;25151;45.566;9.382;2023-04-03T04:04:15;2.58;;;1.58;;
39448;SDS011;25151;45.566;9.382;2023-04-03T04:07:16;2.85;;;1.60;;
39448;SDS011;25151;45.566;9.382;2023-04-03T04:10:18;2.03;;;1.50;;
39448;SDS011;25151;45.566;9.382;2023-04-03T04:13:20;2.17;;;1.63;;
39448;SDS011;25151;45.566;9.382;2023-04-03T04:16:22;2.08;;;1.50;;
39448;SDS011;25151;45.566;9.382;2023-04-03T04:19:23;3.47;;;1.80;;
39448;SDS011;25151;45.566;9.382;2023-04-03T04:22:25;3.03;;;1.98;;
39448;SDS011;25151;45.566;9.382;2023-04-03T04:25:26;2.63;;;1.35;;
39448;SDS011;25151;45.566;9.382;2023-04-03T04:28:27;2.58;;;1.90;;
39448;SDS011;25151;45.566;9.382;2023-04-03T04:31:28;2.00;;;1.50;;
39448;SDS011;25151;45.566;9.382;2023-04-03T04:34:30;3.35;;;1.67;;
39448;SDS011;25151;45.566;9.382;2023-04-03T04:37:32;3.53;;;2.08;;
39448;SDS011;25151;45.566;9.382;2023-04-03T04:40:34;3.50;;;1.77;;
39448;SDS011;25151;45.566;9.382;2023-04-03T04:43:35;3.47;;;1.52;;
39448;SDS011;25151;45.566;9.382;2023-04-03T04:46:37;2.13;;;1.63;;
39448;SDS011;25151;45.566;9.382;2023-04-03T04:49:38;2.67;;;1.60;;
39448;SDS011;25151;45.566;9.382;2023-04-03T04:52:39;2.42;;;1.88;;
39448;SDS011;25151;45.566;9.382;2023-04-03T04:55:41;3.03;;;2.00;;
39448;SDS011;25151;45.566;9.382;2023-04-03T04:58:43;1.50;;;1.33;;
39448;SDS011;25151;45.566;9.382;2023-04-03T05:01:44;3.70;;;2.10;;
39448;SDS011;25151;45.566;9.382;2023-04-03T05:04:46;1.42;;;1.30;;
39448;SDS011;25151;45.566;9.382;2023-04-03T05:07:50;2.63;;;1.70;;
39448;SDS011;25151;45.566;9.382;2023-04-03T05:10:52;2.55;;;1.50;;
39448;SDS011;25151;45.566;9.382;2023-04-03T05:13:53;1.98;;;1.50;;
39448;SDS011;25151;45.566;9.382;2023-04-03T05:16:57;2.25;;;1.48;;
39448;SDS011;25151;45.566;9.382;2023-04-03T05:20:01;2.03;;;1.48;;
39448;SDS011;25151;45.566;9.382;2023-04-03T05:23:04;5.18;;;1.65;;
39448;SDS011;25151;45.566;9.382;2023-04-03T05:26:06;2.08;;;1.55;;
39448;SDS011;25151;45.566;9.382;2023-04-03T05:29:09;3.00;;;1.88;;
39448;SDS011;25151;45.566;9.382;2023-04-03T05:32:11;3.28;;;1.98;;
39448;SDS011;25151;45.566;9.382;2023-04-03T05:35:11;4.93;;;2.13;;
39448;SDS011;25151;45.566;9.382;2023-04-03T05:38:14;3.28;;;1.80;;
39448;SDS011;25151;45.566;9.382;2023-04-03T05:41:15;3.75;;;1.90;;
39448;SDS011;25151;45.566;9.382;2023-04-03T05:44:16;3.03;;;1.58;;
39448;SDS011;25151;45.566;9.382;2023-04-03T05:47:18;1.85;;;1.40;;
39448;SDS011;25151;45.566;9.382;2023-04-03T05:50:20;2.70;;;1.80;;
39448;SDS011;25151;45.566;9.382;2023-04-03T05:53:23;3.58;;;1.60;;
39448;SDS011;25151;45.566;9.382;2023-04-03T05:56:28;3.58;;;2.38;;
39448;SDS011;25151;45.566;9.382;2023-04-03T05:59:30;2.13;;;1.80;;
39448;SDS011;25151;45.566;9.382;2023-04-03T06:02:31;1.50;;;1.35;;
39448;SDS011;25151;45.566;9.382;2023-04-03T06:05:32;2.65;;;1.60;;
39448;SDS011;25151;45.566;9.382;2023-04-03T06:08:33;1.88;;;1.23;;
39448;SDS011;25151;45.566;9.382;2023-04-03T06:11:36;2.45;;;1.38;;
39448;SDS011;25151;45.566;9.382;2023-04-03T06:14:38;2.08;;;1.50;;
39448;SDS011;25151;45.566;9.382;2023-04-03T06:17:42;3.20;;;1.65;;
39448;SDS011;25151;45.566;9.382;2023-04-03T06:20:43;2.20;;;1.50;;
39448;SDS011;25151;45.566;9.382;2023-04-03T06:23:45;2.08;;;1.38;;
39448;SDS011;25151;45.566;9.382;2023-04-03T06:26:46;3.88;;;1.40;;
39448;SDS011;25151;45.566;9.382;2023-04-03T06:29:47;4.07;;;1.85;;
39448;SDS011;25151;45.566;9.382;2023-04-03T06:32:49;2.83;;;1.42;;
39448;SDS011;25151;45.566;9.382;2023-04-03T06:35:55;3.58;;;1.60;;
39448;SDS011;25151;45.566;9.382;2023-04-03T06:38:58;3.40;;;1.73;;
39448;SDS011;25151;45.566;9.382;2023-04-03T06:42:03;3.33;;;1.45;;
39448;SDS011;25151;45.566;9.382;2023-04-03T06:45:04;4.22;;;1.60;;
39448;SDS011;25151;45.566;9.382;2023-04-03T06:48:08;4.22;;;1.67;;
39448;SDS011;25151;45.566;9.382;2023-04-03T06:51:20;5.43;;;2.22;;
39448;SDS011;25151;45.566;9.382;2023-04-03T06:54:26;4.68;;;2.00;;
39448;SDS011;25151;45.566;9.382;2023-04-03T06:57:29;5.75;;;1.70;;
39448;SDS011;25151;45.566;9.382;2023-04-03T07:00:30;7.60;;;2.00;;
39448;SDS011;25151;45.566;9.382;2023-04-03T07:03:31;7.53;;;3.10;;
39448;SDS011;25151;45.566;9.382;2023-04-03T07:06:32;15.23;;;2.80;;
39448;SDS011;25151;45.566;9.382;2023-04-03T07:09:33;11.10;;;2.00;;
39448;SDS011;25151;45.566;9.382;2023-04-03T07:12:34;6.30;;;2.33;;
39448;SDS011;25151;45.566;9.382;2023-04-03T07:15:35;6.30;;;1.98;;
39448;SDS011;25151;45.566;9.382;2023-04-03T07:18:37;9.68;;;2.53;;
39448;SDS011;25151;45.566;9.382;2023-04-03T07:21:38;11.43;;;2.03;;
39448;SDS011;25151;45.566;9.382;2023-04-03T07:24:39;4.20;;;2.00;;
39448;SDS011;25151;45.566;9.382;2023-04-03T07:27:40;7.50;;;2.50;;
39448;SDS011;25151;45.566;9.382;2023-04-03T07:30:44;6.97;;;2.50;;
39448;SDS011;25151;45.566;9.382;2023-04-03T07:33:49;8.20;;;2.42;;
39448;SDS011;25151;45.566;9.382;2023-04-03T07:36:50;8.32;;;2.67;;
39448;SDS011;25151;45.566;9.382;2023-04-03T07:39:55;5.72;;;2.97;;
39448;SDS011;25151;45.566;9.382;2023-04-03T07:42:59;7.90;;;2.60;;
39448;SDS011;25151;45.566;9.382;2023-04-03T07:46:00;10.30;;;2.63;;
39448;SDS011;25151;45.566;9.382;2023-04-03T07:49:04;15.85;;;2.42;;
39448;SDS011;25151;45.566;9.382;2023-04-03T07:52:22;11.85;;;2.75;;
39448;SDS011;25151;45.566;9.382;2023-04-03T07:55:31;12.10;;;2.92;;
39448;SDS011;25151;45.566;9.382;2023-04-03T07:58:48;7.38;;;2.30;;
39448;SDS011;25151;45.566;9.382;2023-04-03T08:02:07;7.25;;;2.63;;
39448;SDS011;25151;45.566;9.382;2023-04-03T08:05:25;8.35;;;2.20;;
39448;SDS011;25151;45.566;9.382;2023-04-03T08:08:51;12.63;;;2.88;;
39448;SDS011;25151;45.566;9.382;2023-04-03T08:12:15;10.98;;;3.53;;
39448;SDS011;25151;45.566;9.382;2023-04-03T08:15:42;9.63;;;2.80;;
39448;SDS011;25151;45.566;9.382;2023-04-03T08:19:00;10.95;;;3.55;;
39448;SDS011;25151;45.566;9.382;2023-04-03T08:22:46;10.60;;;2.70;;
39448;SDS011;25151;45.566;9.382;2023-04-03T08:25:52;11.13;;;2.63;;
39448;SDS011;25151;45.566;9.382;2023-04-03T08:29:02;14.82;;;2.92;;
39448;SDS011;25151;45.566;9.382;2023-04-03T08:32:08;9.90;;;2.55;;
39448;SDS011;25151;45.566;9.382;2023-04-03T08:35:16;10.77;;;2.92;;
39448;SDS011;25151;45.566;9.382;2023-04-03T08:38:20;9.60;;;3.42;;
39448;SDS011;25151;45.566;9.382;2023-04-03T08:41:37;9.65;;;2.70;;
39448;SDS011;25151;45.566;9.382;2023-04-03T08:48:31;9.25;;;2.63;;
39448;SDS011;25151;45.566;9.382;2023-04-03T08:51:36;5.70;;;2.40;;
39448;SDS011;25151;45.566;9.382;2023-04-03T08:54:51;8.98;;;2.92;;
39448;SDS011;25151;45.566;9.382;2023-04-03T08:58:15;12.25;;;3.05;;
39448;SDS011;25151;45.566;9.382;2023-04-03T09:01:26;8.60;;;2.40;;
39448;SDS011;25151;45.566;9.382;2023-04-03T09:04:35;12.13;;;3.00;;
39448;SDS011;25151;45.566;9.382;2023-04-03T09:07:39;11.13;;;2.17;;
39448;SDS011;25151;45.566;9.382;2023-04-03T09:11:06;11.15;;;2.72;;
39448;SDS011;25151;45.566;9.382;2023-04-03T09:15:14;8.68;;;2.85;;
39448;SDS011;25151;45.566;9.382;2023-04-03T09:25:46;10.65;;;3.20;;
39448;SDS011;25151;45.566;9.382;2023-04-03T09:29:06;8.75;;;2.50;;
39448;SDS011;25151;45.566;9.382;2023-04-03T09:32:36;9.40;;;2.63;;
39448;SDS011;25151;45.566;9.382;2023-04-03T09:35:56;8.20;;;2.38;;
39448;SDS011;25151;45.566;9.382;2023-04-03T09:39:19;8.02;;;2.40;;
39448;SDS011;25151;45.566;9.382;2023-04-03T09:42:49;10.07;;;2.65;;
39448;SDS011;25151;45.566;9.382;2023-04-03T09:53:42;14.32;;;3.83;;
39448;SDS011;25151;45.566;9.382;2023-04-03T09:56:49;7.65;;;2.53;;
39448;SDS011;25151;45.566;9.382;2023-04-03T10:00:01;5.43;;;2.25;;
39448;SDS011;25151;45.566;9.382;2023-04-03T10:03:23;7.63;;;2.45;;
39448;SDS011;25151;45.566;9.382;2023-04-03T10:06:45;8.07;;;2.67;;
39448;SDS011;25151;45.566;9.382;2023-04-03T10:13:48;5.50;;;1.88;;
39448;SDS011;25151;45.566;9.382;2023-04-03T10:31:44;8.48;;;2.22;;
39448;SDS011;25151;45.566;9.382;2023-04-03T10:35:11;8.82;;;2.53;;
39448;SDS011;25151;45.566;9.382;2023-04-03T10:38:33;9.18;;;2.45;;
39448;SDS011;25151;45.566;9.382;2023-04-03T10:42:18;9.75;;;1.98;;
39448;SDS011;25151;45.566;9.382;2023-04-03T10:57:17;5.43;;;1.90;;
39448;SDS011;25151;45.566;9.382;2023-04-03T11:00:45;5.60;;;2.28;;
39448;SDS011;25151;45.566;9.382;2023-04-03T11:04:09;6.45;;;1.80;;
39448;SDS011;25151;45.566;9.382;2023-04-03T11:07:45;6.03;;;2.13;;
39448;SDS011;25151;45.566;9.382;2023-04-03T11:11:07;7.63;;;2.30;;
39448;SDS011;25151;45.566;9.382;2023-04-03T11:14:22;4.78;;;1.63;;
39448;SDS011;25151;45.566;9.382;2023-04-03T11:21:51;6.32;;;2.58;;
39448;SDS011;25151;45.566;9.382;2023-04-03T11:25:24;6.45;;;2.85;;
39448;SDS011;25151;45.566;9.382;2023-04-03T11:28:33;5.28;;;2.17;;
39448;SDS011;25151;45.566;9.382;2023-04-03T11:31:58;5.18;;;1.55;;
39448;SDS011;25151;45.566;9.382;2023-04-03T11:35:12;4.63;;;1.95;;
39448;SDS011;25151;45.566;9.382;2023-04-03T11:38:17;6.70;;;1.90;;
39448;SDS011;25151;45.566;9.382;2023-04-03T11:53:11;4.85;;;1.90;;
39448;SDS011;25151;45.566;9.382;2023-04-03T11:56:33;5.57;;;1.77;;
39448;SDS011;25151;45.566;9.382;2023-04-03T11:59:46;4.63;;;1.65;;
39448;SDS011;25151;45.566;9.382;2023-04-03T12:02:56;4.20;;;1.80;;
39448;SDS011;25151;45.566;9.382;2023-04-03T12:12:42;6.15;;;1.95;;
39448;SDS011;25151;45.566;9.382;2023-04-03T12:15:58;8.75;;;2.28;;
39448;SDS011;25151;45.566;9.382;2023-04-03T12:19:27;5.68;;;2.10;;
39448;SDS011;25151;45.566;9.382;2023-04-03T12:23:07;6.35;;;1.85;;
39448;SDS011;25151;45.566;9.382;2023-04-03T12:26:27;9.20;;;2.55;;
39448;SDS011;25151;45.566;9.382;2023-04-03T12:29:38;6.95;;;2.28;;
39448;SDS011;25151;45.566;9.382;2023-04-03T12:32:50;7.05;;;2.25;;
39448;SDS011;25151;45.566;9.382;2023-04-03T12:36:18;4.38;;;1.70;;
39448;SDS011;25151;45.566;9.382;2023-04-03T12:43:01;8.30;;;2.03;;
39448;SDS011;25151;45.566;9.382;2023-04-03T12:49:47;6.85;;;2.50;;
39448;SDS011;25151;45.566;9.382;2023-04-03T12:53:02;5.57;;;1.80;;
39448;SDS011;25151;45.566;9.382;2023-04-03T12:56:20;7.50;;;1.80;;
39448;SDS011;25151;45.566;9.382;2023-04-03T12:59:34;7.30;;;1.60;;
39448;SDS011;25151;45.566;9.382;2023-04-03T13:02:47;5.07;;;1.80;;
39448;SDS011;25151;45.566;9.382;2023-04-03T13:05:58;5.03;;;1.88;;
39448;SDS011;25151;45.566;9.382;2023-04-03T13:09:23;6.57;;;1.92;;
39448;SDS011;25151;45.566;9.382;2023-04-03T13:16:29;3.08;;;1.70;;
39448;SDS011;25151;45.566;9.382;2023-04-03T13:33:05;4.50;;;1.55;;
39448;SDS011;25151;45.566;9.382;2023-04-03T13:49:16;4.60;;;1.33;;
39448;SDS011;25151;45.566;9.382;2023-04-03T14:00:53;2.80;;;1.30;;
39448;SDS011;25151;45.566;9.382;2023-04-03T14:04:09;4.63;;;1.85;;
39448;SDS011;25151;45.566;9.382;2023-04-03T14:07:19;4.95;;;1.88;;
39448;SDS011;25151;45.566;9.382;2023-04-03T14:10:22;6.93;;;2.28;;
39448;SDS011;25151;45.566;9.382;2023-04-03T14:13:29;3.92;;;1.60;;
39448;SDS011;25151;45.566;9.382;2023-04-03T14:16:33;4.35;;;1.70;;
39448;SDS011;25151;45.566;9.382;2023-04-03T14:19:39;4.07;;;1.52;;
39448;SDS011;25151;45.566;9.382;2023-04-03T14:22:41;4.10;;;1.85;;
39448;SDS011;25151;45.566;9.382;2023-04-03T14:25:44;4.45;;;1.67;;
39448;SDS011;25151;45.566;9.382;2023-04-03T14:28:52;5.10;;;1.40;;
39448;SDS011;25151;45.566;9.382;2023-04-03T14:32:12;3.67;;;1.63;;
39448;SDS011;25151;45.566;9.382;2023-04-03T14:38:49;2.30;;;1.20;;
39448;SDS011;25151;45.566;9.382;2023-04-03T14:42:11;11.10;;;3.25;;
39448;SDS011;25151;45.566;9.382;2023-04-03T14:45:16;3.92;;;1.55;;
39448;SDS011;25151;45.566;9.382;2023-04-03T14:48:27;3.40;;;1.50;;
39448;SDS011;25151;45.566;9.382;2023-04-03T14:51:51;6.05;;;1.48;;
39448;SDS011;25151;45.566;9.382;2023-04-03T14:55:22;3.00;;;1.20;;
39448;SDS011;25151;45.566;9.382;2023-04-03T14:58:47;5.88;;;1.27;;
39448;SDS011;25151;45.566;9.382;2023-04-03T15:02:07;6.65;;;1.95;;
39448;SDS011;25151;45.566;9.382;2023-04-03T15:05:27;4.70;;;1.35;;
39448;SDS011;25151;45.566;9.382;2023-04-03T15:09:21;2.78;;;1.20;;
39448;SDS011;25151;45.566;9.382;2023-04-03T15:12:28;4.13;;;1.42;;
39448;SDS011;25151;45.566;9.382;2023-04-03T15:15:42;3.78;;;1.65;;
39448;SDS011;25151;45.566;9.382;2023-04-03T15:22:33;4.60;;;1.33;;
39448;SDS011;25151;45.566;9.382;2023-04-03T15:25:46;2.63;;;1.40;;
39448;SDS011;25151;45.566;9.382;2023-04-03T15:28:51;3.97;;;1.75;;
39448;SDS011;25151;45.566;9.382;2023-04-03T15:32:08;6.03;;;1.45;;
39448;SDS011;25151;45.566;9.382;2023-04-03T15:35:36;3.75;;;1.88;;
39448;SDS011;25151;45.566;9.382;2023-04-03T15:38:55;7.20;;;1.60;;
39448;SDS011;25151;45.566;9.382;2023-04-03T15:42:21;5.65;;;1.27;;
39448;SDS011;25151;45.566;9.382;2023-04-03T15:45:51;4.53;;;1.20;;
39448;SDS011;25151;45.566;9.382;2023-04-03T15:49:24;1.90;;;1.20;;
39448;SDS011;25151;45.566;9.382;2023-04-03T15:52:32;2.55;;;1.20;;
39448;SDS011;25151;45.566;9.382;2023-04-03T15:59:11;5.00;;;1.80;;
39448;SDS011;25151;45.566;9.382;2023-04-03T16:02:30;3.40;;;1.42;;
39448;SDS011;25151;45.566;9.382;2023-04-03T16:05:35;3.67;;;1.05;;
39448;SDS011;25151;45.566;9.382;2023-04-03T16:08:41;5.47;;;1.80;;
39448;SDS011;25151;45.566;9.382;2023-04-03T16:11:43;2.22;;;1.30;;
39448;SDS011;25151;45.566;9.382;2023-04-03T16:14:47;3.40;;;1.35;;
39448;SDS011;25151;45.566;9.382;2023-04-03T16:17:52;2.92;;;1.30;;
39448;SDS011;25151;45.566;9.382;2023-04-03T16:20:54;2.70;;;1.38;;
39448;SDS011;25151;45.566;9.382;2023-04-03T16:23:57;3.47;;;1.17;;
39448;SDS011;25151;45.566;9.382;2023-04-03T16:27:04;3.33;;;1.10;;
39448;SDS011;25151;45.566;9.382;2023-04-03T16:30:06;3.15;;;1.08;;
39448;SDS011;25151;45.566;9.382;2023-04-03T16:33:11;3.15;;;0.98;;
39448;SDS011;25151;45.566;9.382;2023-04-03T16:36:13;2.95;;;1.20;;
39448;SDS011;25151;45.566;9.382;2023-04-03T16:39:17;1.95;;;1.00;;
39448;SDS011;25151;45.566;9.382;2023-04-03T16:42:30;3.75;;;1.35;;
39448;SDS011;25151;45.566;9.382;2023-04-03T16:45:38;4.03;;;1.60;;
39448;SDS011;25151;45.566;9.382;2023-04-03T16:48:43;4.95;;;1.23;;
39448;SDS011;25151;45.566;9.382;2023-04-03T16:51:48;3.72;;;1.90;;
39448;SDS011;25151;45.566;9.382;2023-04-03T16:54:54;3.70;;;1.27;;
39448;SDS011;25151;45.566;9.382;2023-04-03T16:57:59;4.55;;;1.13;;
39448;SDS011;25151;45.566;9.382;2023-04-03T17:01:12;4.75;;;1.50;;
39448;SDS011;25151;45.566;9.382;2023-04-03T17:04:15;4.72;;;1.15;;
39448;SDS011;25151;45.566;9.382;2023-04-03T17:07:18;2.22;;;1.20;;
39448;SDS011;25151;45.566;9.382;2023-04-03T17:10:20;2.50;;;1.30;;
39448;SDS011;25151;45.566;9.382;2023-04-03T17:13:21;2.28;;;1.23;;
39448;SDS011;25151;45.566;9.382;2023-04-03T17:16:23;5.82;;;1.40;;
39448;SDS011;25151;45.566;9.382;2023-04-03T17:19:25;2.50;;;0.93;;
39448;SDS011;25151;45.566;9.382;2023-04-03T17:22:28;2.13;;;1.15;;
39448;SDS011;25151;45.566;9.382;2023-04-03T17:25:29;4.38;;;1.73;;
39448;SDS011;25151;45.566;9.382;2023-04-03T17:28:30;4.72;;;1.55;;
39448;SDS011;25151;45.566;9.382;2023-04-03T17:31:31;1.15;;;1.00;;
39448;SDS011;25151;45.566;9.382;2023-04-03T17:34:33;4.18;;;1.40;;
39448;SDS011;25151;45.566;9.382;2023-04-03T17:37:36;2.15;;;1.02;;
39448;SDS011;25151;45.566;9.382;2023-04-03T17:40:38;3.65;;;1.00;;
39448;SDS011;25151;45.566;9.382;2023-04-03T17:43:41;3.38;;;1.10;;
39448;SDS011;25151;45.566;9.382;2023-04-03T17:46:42;3.20;;;0.95;;
39448;SDS011;25151;45.566;9.382;2023-04-03T17:49:44;5.05;;;1.30;;
39448;SDS011;25151;45.566;9.382;2023-04-03T17:52:46;2.35;;;1.20;;
39448;SDS011;25151;45.566;9.382;2023-04-03T17:55:47;2.40;;;1.10;;
39448;SDS011;25151;45.566;9.382;2023-04-03T17:58:50;2.05;;;1.13;;
39448;SDS011;25151;45.566;9.382;2023-04-03T18:01:52;1.25;;;1.02;;
39448;SDS011;25151;45.566;9.382;2023-04-03T18:05:03;3.05;;;1.00;;
39448;SDS011;25151;45.566;9.382;2023-04-03T18:08:06;1.67;;;0.90;;
39448;SDS011;25151;45.566;9.382;2023-04-03T18:11:15;1.98;;;0.93;;
39448;SDS011;25151;45.566;9.382;2023-04-03T18:14:21;5.07;;;0.80;;
39448;SDS011;25151;45.566;9.382;2023-04-03T18:17:26;2.28;;;1.15;;
39448;SDS011;25151;45.566;9.382;2023-04-03T18:20:30;3.42;;;1.00;;
39448;SDS011;25151;45.566;9.382;2023-04-03T18:23:32;5.88;;;1.05;;
39448;SDS011;25151;45.566;9.382;2023-04-03T18:26:38;1.98;;;1.17;;
39448;SDS011;25151;45.566;9.382;2023-04-03T18:29:42;6.57;;;1.10;;
39448;SDS011;25151;45.566;9.382;2023-04-03T18:32:46;3.15;;;1.02;;
39448;SDS011;25151;45.566;9.382;2023-04-03T18:35:48;2.58;;;1.05;;
39448;SDS011;25151;45.566;9.382;2023-04-03T18:38:52;2.50;;;1.25;;
39448;SDS011;25151;45.566;9.382;2023-04-03T18:41:55;4.05;;;1.30;;
39448;SDS011;25151;45.566;9.382;2023-04-03T18:45:00;4.57;;;0.98;;
39448;SDS011;25151;45.566;9.382;2023-04-03T18:48:04;2.05;;;0.82;;
39448;SDS011;25151;45.566;9.382;2023-04-03T18:51:07;3.17;;;1.23;;
39448;SDS011;25151;45.566;9.382;2023-04-03T18:54:10;5.32;;;0.90;;
39448;SDS011;25151;45.566;9.382;2023-04-03T18:57:20;4.13;;;0.73;;
39448;SDS011;25151;45.566;9.382;2023-04-03T19:00:23;4.35;;;0.98;;
39448;SDS011;25151;45.566;9.382;2023-04-03T19:03:26;2.22;;;0.80;;
39448;SDS011;25151;45.566;9.382;2023-04-03T19:06:28;3.22;;;0.90;;
39448;SDS011;25151;45.566;9.382;2023-04-03T19:09:36;2.88;;;0.93;;
39448;SDS011;25151;45.566;9.382;2023-04-03T19:12:39;2.45;;;1.10;;
39448;SDS011;25151;45.566;9.382;2023-04-03T19:15:40;3.63;;;0.93;;
39448;SDS011;25151;45.566;9.382;2023-04-03T19:18:42;1.80;;;0.85;;
39448;SDS011;25151;45.566;9.382;2023-04-03T19:21:44;2.13;;;1.17;;
39448;SDS011;25151;45.566;9.382;2023-04-03T19:24:46;2.30;;;1.08;;
39448;SDS011;25151;45.566;9.382;2023-04-03T19:27:47;2.47;;;0.90;;
39448;SDS011;25151;45.566;9.382;2023-04-03T19:34:17;2.75;;;1.23;;
39448;SDS011;25151;45.566;9.382;2023-04-03T19:37:22;1.48;;;0.88;;
39448;SDS011;25151;45.566;9.382;2023-04-03T19:40:25;2.40;;;1.00;;
39448;SDS011;25151;45.566;9.382;2023-04-03T19:43:29;4.97;;;0.70;;
39448;SDS011;25151;45.566;9.382;2023-04-03T19:46:37;3.80;;;1.13;;
39448;SDS011;25151;45.566;9.382;2023-04-03T19:49:42;3.47;;;0.75;;
39448;SDS011;25151;45.566;9.382;2023-04-03T19:52:46;3.17;;;1.15;;
39448;SDS011;25151;45.566;9.382;2023-04-03T19:55:47;3.03;;;0.73;;
39448;SDS011;25151;45.566;9.382;2023-04-03T19:58:50;2.78;;;1.00;;
39448;SDS011;25151;45.566;9.382;2023-04-03T20:01:56;2.95;;;0.60;;
39448;SDS011;25151;45.566;9.382;2023-04-03T20:04:59;1.45;;;0.55;;
39448;SDS011;25151;45.566;9.382;2023-04-03T20:08:03;1.27;;;0.80;;
39448;SDS011;25151;45.566;9.382;2023-04-03T20:11:06;2.00;;;0.88;;
39448;SDS011;25151;45.566;9.382;2023-04-03T20:14:10;1.17;;;0.52;;
39448;SDS011;25151;45.566;9.382;2023-04-03T20:17:15;3.83;;;0.90;;
39448;SDS011;25151;45.566;9.382;2023-04-03T20:20:18;1.77;;;0.70;;
39448;SDS011;25151;45.566;9.382;2023-04-03T20:23:26;1.38;;;0.90;;
39448;SDS011;25151;45.566;9.382;2023-04-03T20:26:33;5.05;;;1.40;;
39448;SDS011;25151;45.566;9.382;2023-04-03T20:29:42;5.18;;;0.88;;
39448;SDS011;25151;45.566;9.382;2023-04-03T20:32:48;2.67;;;1.00;;
39448;SDS011;25151;45.566;9.382;2023-04-03T20:35:58;2.80;;;0.65;;
39448;SDS011;25151;45.566;9.382;2023-04-03T20:39:04;2.38;;;0.73;;
39448;SDS011;25151;45.566;9.382;2023-04-03T20:42:12;3.10;;;1.05;;
39448;SDS011;25151;45.566;9.382;2023-04-03T20:45:17;4.43;;;0.90;;
39448;SDS011;25151;45.566;9.382;2023-04-03T20:48:37;1.05;;;0.70;;
39448;SDS011;25151;45.566;9.382;2023-04-03T20:51:50;2.45;;;0.98;;
39448;SDS011;25151;45.566;9.382;2023-04-03T20:54:57;3.38;;;1.20;;
39448;SDS011;25151;45.566;9.382;2023-04-03T20:58:03;4.70;;;1.17;;
39448;SDS011;25151;45.566;9.382;2023-04-03T21:01:18;1.77;;;0.80;;
39448;SDS011;25151;45.566;9.382;2023-04-03T21:04:29;1.48;;;0.70;;
39448;SDS011;25151;45.566;9.382;2023-04-03T21:21:38;2.70;;;0.65;;
39448;SDS011;25151;45.566;9.382;2023-04-03T21:24:45;1.23;;;0.80;;